Impacts METAR Board INFO
IDs:

KEWR - Newark Intl, NJ, US

Updated at: 0026 UTC 12 Dec 2017
Potential Impact None Slight Moderate High
Time11/12Z 11/13Z 11/14Z 11/15Z 11/16Z 11/17Z 11/18Z 11/19Z 11/20Z 11/21Z 11/22Z 11/23Z 12/00Z
VIS10 10 10 10 10 10 10 10 10 10 10 10 10
CIG70 -- -- -- -- -- -- 250 250 260 150 140 140
CoverOVCSCTFEWFEWFEWSCTSCTBKNBKNBKNBKNBKNBKN
FltCatVFRVFRVFRVFRVFRVFRVFRVFRVFRVFRVFRVFRVFR
WX--------------------------
WDir230250230260270290280260280280270250190
WSpd8 8 9 6 10 8 8 11 9 7 6 7 3
WGst-- -- -- -- -- -- -- -- -- -- -- -- --
Raw hourly METARs
KEWR 111151Z 23008KT 10SM FEW055 BKN070 OVC130 00/M03 A3002 RMK AO2 SLP165 4/001 T00001033 10017 20000 51007
KEWR 111251Z 25008KT 10SM FEW020 SCT070 00/M03 A3004 RMK AO2 SLP172 T00001028
KEWR 111351Z 23009KT 10SM FEW015 FEW070 FEW130 01/M02 A3004 RMK AO2 SLP172 T00111022
KEWR 111451Z 26006KT 10SM FEW070 FEW130 03/M02 A3004 RMK AO2 SLP173 T00281022 51008
KEWR 111551Z 27010KT 10SM FEW040 04/M05 A3004 RMK AO2 SLP173 T00391050
KEWR 111651Z 29008KT 10SM FEW040 SCT250 04/M05 A3002 RMK AO2 SLP164 T00441050
KEWR 111751Z 28008KT 10SM FEW040 SCT250 06/M06 A2999 RMK AO2 SLP154 T00561061 10056 20000 58019
KEWR 111851Z 26011KT 10SM SCT050 BKN250 06/M06 A2999 RMK AO2 SLP154 T00561061
KEWR 111951Z 28009KT 10SM SCT050 BKN250 06/M05 A3000 RMK AO2 SLP157 T00561050
KEWR 112051Z 28007KT 10SM SCT050 SCT220 BKN260 04/M06 A2999 RMK AO2 SLP154 T00441056 50000
KEWR 112151Z 27006KT 10SM FEW050 BKN150 BKN200 BKN250 04/M06 A3000 RMK AO2 SLP159 T00391061
KEWR 112251Z 25007KT 10SM BKN140 BKN200 03/M06 A3002 RMK AO2 SLP165 T00331061
KEWR 112351Z 19003KT 10SM BKN140 BKN210 03/M06 A3001 RMK AO2 SLP161 T00281061 10061 20022 50007